createdAt,value
2022-09-03T00:00:28.036Z,14.70
2022-09-03T00:03:03.197Z,14.70
2022-09-03T00:05:40.045Z,14.60
2022-09-03T00:08:12.657Z,14.60
2022-09-03T00:10:47.886Z,14.50
2022-09-03T00:13:21.686Z,14.50
2022-09-03T00:15:52.140Z,14.40
2022-09-03T00:18:24.036Z,14.40
2022-09-03T00:20:59.441Z,14.30
2022-09-03T00:23:31.578Z,14.30
2022-09-03T00:26:05.990Z,14.20
2022-09-03T00:28:43.376Z,14.20
2022-09-03T00:31:18.564Z,14.20
2022-09-03T00:33:51.916Z,14.20
2022-09-03T00:36:25.251Z,14.10
2022-09-03T00:38:53.526Z,14.10
2022-09-03T00:41:33.763Z,14.10
2022-09-03T00:44:26.515Z,14.10
2022-09-03T00:47:01.493Z,14.10
2022-09-03T00:49:43.097Z,14.00
2022-09-03T00:52:23.172Z,14.00
2022-09-03T00:54:59.625Z,14.00
2022-09-03T00:57:47.689Z,14.00
2022-09-03T01:00:20.109Z,14.00
2022-09-03T01:03:02.619Z,13.90
2022-09-03T01:05:50.289Z,13.90
2022-09-03T01:08:33.156Z,13.90
2022-09-03T01:11:18.066Z,13.90
2022-09-03T01:13:58.306Z,13.90
2022-09-03T01:16:36.386Z,13.90
2022-09-03T01:19:25.685Z,13.80
2022-09-03T01:22:11.408Z,13.80
2022-09-03T01:25:11.324Z,13.80
2022-09-03T01:27:53.638Z,13.70
2022-09-03T01:30:24.108Z,13.70
2022-09-03T01:33:01.595Z,13.70
2022-09-03T01:35:36.193Z,13.60
2022-09-03T01:38:16.668Z,13.60
2022-09-03T01:40:56.852Z,13.60
2022-09-03T01:43:40.029Z,13.50
2022-09-03T01:46:16.991Z,13.50
2022-09-03T01:48:52.368Z,13.40
2022-09-03T01:51:23.997Z,13.40
2022-09-03T01:54:26.104Z,13.40
2022-09-03T01:57:35.360Z,13.30
2022-09-03T02:00:10.387Z,13.30
2022-09-03T02:02:47.440Z,13.20
2022-09-03T02:05:19.295Z,13.20
2022-09-03T02:07:51.886Z,13.20
2022-09-03T02:10:22.477Z,13.20
2022-09-03T02:12:55.898Z,13.20
2022-09-03T02:15:26.760Z,13.10
2022-09-03T02:18:02.202Z,13.10
2022-09-03T02:20:31.528Z,13.10
2022-09-03T02:23:00.317Z,13.10
2022-09-03T02:25:34.588Z,13.10
2022-09-03T02:28:04.557Z,13.10
2022-09-03T02:30:35.910Z,13.10
2022-09-03T02:33:05.650Z,13.10
2022-09-03T02:35:34.822Z,13.10
2022-09-03T02:38:11.874Z,13.10
2022-09-03T02:40:40.748Z,13.00
2022-09-03T02:43:16.305Z,13.00
2022-09-03T02:45:48.823Z,13.00
2022-09-03T02:48:23.951Z,13.00
2022-09-03T02:50:52.728Z,13.00
2022-09-03T02:53:21.565Z,13.00
2022-09-03T02:55:50.687Z,12.90
2022-09-03T02:58:18.974Z,12.90
2022-09-03T03:00:49.437Z,12.90
2022-09-03T03:03:19.152Z,12.90
2022-09-03T03:05:49.655Z,12.90
2022-09-03T03:08:21.452Z,12.80
2022-09-03T03:10:52.132Z,12.80
2022-09-03T03:13:20.632Z,12.80
2022-09-03T03:15:49.098Z,12.70
2022-09-03T03:18:18.727Z,12.70
2022-09-03T03:20:48.314Z,12.70
2022-09-03T03:23:16.776Z,12.70
2022-09-03T03:25:45.269Z,12.60
2022-09-03T03:28:15.326Z,12.60
2022-09-03T03:30:47.680Z,12.60
2022-09-03T03:33:16.701Z,12.60
2022-09-03T03:35:46.713Z,12.60
2022-09-03T03:38:15.099Z,12.60
2022-09-03T03:40:43.345Z,12.60
2022-09-03T03:43:11.977Z,12.50
2022-09-03T03:45:40.264Z,12.50
2022-09-03T03:48:08.615Z,12.50
2022-09-03T03:50:38.119Z,12.50
2022-09-03T03:53:07.709Z,12.50
2022-09-03T03:55:36.427Z,12.40
2022-09-03T03:58:04.846Z,12.40
2022-09-03T04:00:37.878Z,12.30
2022-09-03T04:03:06.306Z,12.30
2022-09-03T04:05:34.649Z,12.30
2022-09-03T04:08:04.117Z,12.30
2022-09-03T04:10:33.827Z,12.30
2022-09-03T04:13:02.076Z,12.30
2022-09-03T04:15:30.455Z,12.30
2022-09-03T04:17:59.287Z,12.30
2022-09-03T04:20:27.585Z,12.30
2022-09-03T04:22:55.910Z,12.20
2022-09-03T04:25:24.367Z,12.20
2022-09-03T04:27:54.563Z,12.20
2022-09-03T04:30:23.259Z,12.10
2022-09-03T04:32:54.977Z,12.10
2022-09-03T04:35:25.388Z,12.10
2022-09-03T04:37:55.287Z,12.10
2022-09-03T04:40:23.599Z,12.30
2022-09-03T04:42:52.443Z,12.50
2022-09-03T04:45:22.059Z,12.90
2022-09-03T04:47:58.345Z,13.20
2022-09-03T04:50:27.971Z,13.70
2022-09-03T04:53:07.119Z,14.20
2022-09-03T04:55:36.710Z,14.70
2022-09-03T04:58:05.233Z,15.30
2022-09-03T05:00:35.095Z,15.80
2022-09-03T05:03:05.083Z,16.30
2022-09-03T05:05:34.306Z,16.80
2022-09-03T05:08:03.224Z,17.30
2022-09-03T05:10:32.435Z,17.80
2022-09-03T05:13:02.036Z,18.30
2022-09-03T05:15:31.592Z,18.80
2022-09-03T05:18:02.255Z,19.30
2022-09-03T05:20:32.690Z,19.70
2022-09-03T05:23:04.272Z,20.20
2022-09-03T05:25:33.271Z,20.60
2022-09-03T05:28:02.864Z,21.00
2022-09-03T05:30:31.348Z,21.40
2022-09-03T05:33:00.916Z,21.70
2022-09-03T05:35:30.177Z,22.10
2022-09-03T05:38:00.814Z,22.40
2022-09-03T05:40:29.508Z,22.70
2022-09-03T05:42:59.859Z,23.10
2022-09-03T05:45:29.826Z,23.50
2022-09-03T05:48:02.763Z,23.80
2022-09-03T05:50:31.094Z,24.20
2022-09-03T05:53:00.326Z,24.40
2022-09-03T05:55:29.686Z,24.80
2022-09-03T05:57:58.009Z,25.20
2022-09-03T06:00:26.288Z,25.40
2022-09-03T06:02:55.506Z,25.60
2022-09-03T06:05:25.264Z,26.00
2022-09-03T06:07:53.543Z,26.40
2022-09-03T06:10:26.142Z,26.70
2022-09-03T06:13:03.947Z,26.90
2022-09-03T06:15:32.864Z,27.10
2022-09-03T06:18:01.113Z,27.30
2022-09-03T06:20:36.418Z,27.50
2022-09-03T06:23:05.566Z,27.70
2022-09-03T06:25:34.142Z,27.90
2022-09-03T06:28:02.745Z,28.10
2022-09-03T06:30:31.117Z,28.40
2022-09-03T06:32:59.403Z,28.60
2022-09-03T06:35:27.728Z,28.70
2022-09-03T06:38:00.455Z,28.90
2022-09-03T06:40:28.894Z,29.20
2022-09-03T06:43:03.203Z,29.50
2022-09-03T06:45:32.337Z,29.80
2022-09-03T06:48:00.756Z,29.90
2022-09-03T06:50:32.626Z,30.10
2022-09-03T06:53:05.066Z,30.30
2022-09-03T06:55:33.363Z,30.30
2022-09-03T06:58:01.625Z,30.40
2022-09-03T07:00:30.775Z,30.70
2022-09-03T07:03:00.223Z,30.80
2022-09-03T07:05:29.080Z,31.00
2022-09-03T07:07:57.429Z,31.30
2022-09-03T07:10:28.109Z,31.60
2022-09-03T07:12:57.085Z,31.80
2022-09-03T07:15:26.383Z,32.00
2022-09-03T07:17:55.043Z,32.20
2022-09-03T07:20:23.438Z,32.50
2022-09-03T07:22:51.787Z,32.80
2022-09-03T07:25:20.126Z,33.10
2022-09-03T07:27:51.210Z,33.30
2022-09-03T07:30:20.284Z,33.40
2022-09-03T07:32:51.731Z,33.60
2022-09-03T07:35:20.635Z,33.70
2022-09-03T07:37:50.716Z,33.80
2022-09-03T07:40:19.956Z,34.00
2022-09-03T07:42:54.514Z,34.00
2022-09-03T07:45:24.061Z,34.20
2022-09-03T07:47:52.403Z,34.40
2022-09-03T07:50:21.131Z,34.70
2022-09-03T07:52:49.534Z,35.00
2022-09-03T07:55:18.006Z,35.20
2022-09-03T07:57:46.285Z,35.30
2022-09-03T08:00:17.796Z,35.40
2022-09-03T08:02:46.502Z,35.40
2022-09-03T08:05:14.990Z,35.40
2022-09-03T08:07:43.314Z,35.50
2022-09-03T08:10:11.774Z,35.50
2022-09-03T08:12:40.094Z,35.60
2022-09-03T08:15:09.645Z,35.80
2022-09-03T08:17:39.263Z,35.90
2022-09-03T08:20:08.218Z,35.90
2022-09-03T08:22:37.558Z,36.10
2022-09-03T08:25:06.276Z,36.20
2022-09-03T08:27:38.048Z,36.30
2022-09-03T08:30:09.812Z,36.40
2022-09-03T08:32:39.615Z,36.30
2022-09-03T08:35:10.025Z,36.20
2022-09-03T08:37:39.303Z,36.20
2022-09-03T08:40:08.378Z,36.30
2022-09-03T08:42:50.297Z,36.40
2022-09-03T08:45:21.793Z,36.40
2022-09-03T08:47:59.196Z,36.40
2022-09-03T08:50:30.541Z,36.30
2022-09-03T08:53:04.187Z,36.40
2022-09-03T08:55:42.627Z,36.40
2022-09-03T08:58:14.611Z,36.30
2022-09-03T09:00:51.767Z,36.40
2022-09-03T09:03:43.528Z,36.40
2022-09-03T09:06:22.447Z,36.50
2022-09-03T09:09:00.784Z,36.60
2022-09-03T09:11:39.736Z,36.70
2022-09-03T09:14:17.238Z,37.00
2022-09-03T09:16:55.473Z,37.00
2022-09-03T09:19:39.150Z,36.90
2022-09-03T09:22:14.114Z,37.00
2022-09-03T09:24:46.039Z,37.00
2022-09-03T09:27:17.254Z,37.00
2022-09-03T09:29:49.795Z,37.00
2022-09-03T09:32:21.638Z,36.90
2022-09-03T09:34:53.256Z,37.00
2022-09-03T09:37:22.126Z,37.20
2022-09-03T09:39:58.123Z,37.20
2022-09-03T09:42:27.757Z,37.20
2022-09-03T09:44:56.025Z,37.00
2022-09-03T09:47:28.630Z,36.70
2022-09-03T09:50:00.154Z,36.70
2022-09-03T09:52:31.137Z,36.60
2022-09-03T09:55:09.217Z,36.50
2022-09-03T09:57:39.778Z,36.00
2022-09-03T10:00:11.240Z,35.40
2022-09-03T10:02:49.114Z,34.90
2022-09-03T10:05:24.888Z,34.40
2022-09-03T10:07:59.467Z,34.30
2022-09-03T10:10:29.135Z,34.20
2022-09-03T10:13:04.068Z,34.40
2022-09-03T10:15:41.522Z,34.70
2022-09-03T10:18:17.275Z,34.70
2022-09-03T10:20:55.876Z,34.70
2022-09-03T10:23:28.230Z,34.50
2022-09-03T10:26:07.545Z,34.20
2022-09-03T10:28:41.347Z,33.90
2022-09-03T10:31:32.961Z,33.80
2022-09-03T10:34:07.819Z,34.00
2022-09-03T10:37:00.540Z,34.20
2022-09-03T10:39:43.563Z,34.10
2022-09-03T10:42:24.690Z,33.90
2022-09-03T10:45:02.262Z,33.50
2022-09-03T10:47:44.317Z,33.00
2022-09-03T10:50:17.438Z,32.60
2022-09-03T10:53:08.545Z,32.30
2022-09-03T10:55:49.345Z,32.00
2022-09-03T10:58:42.099Z,31.90
2022-09-03T11:01:22.416Z,31.80
2022-09-03T11:03:58.523Z,31.70
2022-09-03T11:06:29.737Z,31.50
2022-09-03T11:09:06.520Z,31.30
2022-09-03T11:11:42.295Z,31.30
2022-09-03T11:14:12.527Z,31.30
2022-09-03T11:16:45.662Z,31.10
2022-09-03T11:19:18.097Z,30.90
2022-09-03T11:21:49.610Z,30.70
2022-09-03T11:24:23.926Z,30.50
2022-09-03T11:26:59.003Z,30.20
2022-09-03T11:29:36.846Z,29.90
2022-09-03T11:32:11.016Z,29.60
2022-09-03T11:34:48.287Z,29.30
2022-09-03T11:37:22.776Z,29.10
2022-09-03T11:40:08.714Z,29.00
2022-09-03T11:42:39.175Z,29.00
2022-09-03T11:45:24.548Z,29.00
2022-09-03T11:47:53.855Z,29.10
2022-09-03T11:50:25.526Z,29.50
2022-09-03T11:52:56.979Z,29.80
2022-09-03T11:55:43.264Z,30.00
2022-09-03T11:58:18.726Z,30.10
2022-09-03T12:00:47.185Z,30.00
2022-09-03T12:03:18.017Z,29.80
2022-09-03T12:05:55.874Z,29.70
2022-09-03T12:08:45.667Z,29.50
2022-09-03T12:11:35.630Z,29.30
2022-09-03T12:14:13.932Z,29.10
2022-09-03T12:17:01.584Z,28.90
2022-09-03T12:19:39.090Z,28.70
2022-09-03T12:22:07.544Z,28.50
2022-09-03T12:24:38.346Z,28.40
2022-09-03T12:27:11.745Z,28.40
2022-09-03T12:29:41.228Z,28.40
2022-09-03T12:32:14.817Z,28.50
2022-09-03T12:34:43.274Z,28.90
2022-09-03T12:38:04.071Z,29.40
2022-09-03T12:40:19.059Z,30.10
2022-09-03T12:42:49.108Z,30.30
2022-09-03T12:45:22.114Z,30.30
2022-09-03T12:47:51.169Z,30.60
2022-09-03T12:50:21.795Z,31.00
2022-09-03T12:52:52.605Z,31.20
2022-09-03T12:55:29.638Z,31.30
2022-09-03T12:58:05.386Z,31.50
2022-09-03T13:00:36.656Z,31.90
2022-09-03T13:03:08.396Z,32.50
2022-09-03T13:05:42.333Z,33.20
2022-09-03T13:08:15.706Z,33.80
2022-09-03T13:10:44.734Z,34.20
2022-09-03T13:13:24.712Z,34.30
2022-09-03T13:16:16.495Z,34.20
2022-09-03T13:18:54.148Z,34.10
2022-09-03T13:21:36.642Z,34.00
2022-09-03T13:24:19.545Z,34.20
2022-09-03T13:26:56.619Z,34.50
2022-09-03T13:29:43.656Z,34.90
2022-09-03T13:32:24.896Z,35.40
2022-09-03T13:34:57.810Z,36.00
2022-09-03T13:37:33.381Z,36.30
2022-09-03T13:40:16.163Z,36.70
2022-09-03T13:42:54.039Z,37.10
2022-09-03T13:45:46.568Z,37.50
2022-09-03T13:48:43.117Z,37.80
2022-09-03T13:51:17.283Z,37.90
2022-09-03T13:53:56.147Z,37.80
2022-09-03T13:56:35.736Z,37.50
2022-09-03T13:59:09.766Z,36.90
2022-09-03T14:01:57.973Z,36.30
2022-09-03T14:04:34.226Z,35.60
2022-09-03T14:07:07.735Z,35.00
2022-09-03T14:09:43.106Z,34.30
2022-09-03T14:12:18.653Z,33.80
2022-09-03T14:14:54.544Z,33.20
2022-09-03T14:17:41.709Z,32.70
2022-09-03T14:20:14.114Z,32.20
2022-09-03T14:22:52.696Z,31.80
2022-09-03T14:25:23.370Z,31.40
2022-09-03T14:27:52.166Z,31.10
2022-09-03T14:30:32.686Z,30.80
2022-09-03T14:33:12.456Z,30.60
2022-09-03T14:36:05.807Z,30.40
2022-09-03T14:39:06.889Z,30.10
2022-09-03T14:41:52.200Z,29.90
2022-09-03T14:44:46.929Z,29.70
2022-09-03T14:47:26.636Z,29.50
2022-09-03T14:50:15.386Z,29.10
2022-09-03T14:53:03.518Z,28.90
2022-09-03T14:55:51.941Z,28.70
2022-09-03T14:59:04.520Z,28.50
2022-09-03T15:01:39.502Z,28.30
2022-09-03T15:04:46.747Z,28.10
2022-09-03T15:07:27.795Z,28.00
2022-09-03T15:10:06.137Z,27.80
2022-09-03T15:12:40.196Z,27.70
2022-09-03T15:15:14.779Z,27.60
2022-09-03T15:17:58.488Z,27.40
2022-09-03T15:20:44.249Z,27.30
2022-09-03T15:23:57.487Z,27.20
2022-09-03T15:26:53.382Z,27.10
2022-09-03T15:29:32.820Z,27.00
2022-09-03T15:32:08.149Z,27.00
2022-09-03T15:35:06.269Z,26.90
2022-09-03T15:37:43.616Z,26.90
2022-09-03T15:40:26.972Z,26.80
2022-09-03T15:43:01.841Z,26.80
2022-09-03T15:45:39.565Z,26.80
2022-09-03T15:48:20.017Z,26.80
2022-09-03T15:50:57.117Z,26.70
2022-09-03T15:53:35.966Z,26.70
2022-09-03T15:56:13.976Z,26.60
2022-09-03T15:58:51.327Z,26.50
2022-09-03T16:01:32.677Z,26.50
2022-09-03T16:04:09.894Z,26.40
2022-09-03T16:06:56.835Z,26.30
2022-09-03T16:09:39.298Z,26.30
2022-09-03T16:12:27.598Z,26.20
2022-09-03T16:15:02.186Z,26.00
2022-09-03T16:17:35.108Z,25.90
2022-09-03T16:20:08.688Z,25.90
2022-09-03T16:22:46.077Z,25.80
2022-09-03T16:25:20.044Z,25.70
2022-09-03T16:28:07.629Z,25.60
2022-09-03T16:30:53.660Z,25.50
2022-09-03T16:33:33.470Z,25.40
2022-09-03T16:36:15.739Z,25.30
2022-09-03T16:38:54.097Z,25.30
2022-09-03T16:41:29.368Z,25.20
2022-09-03T16:44:12.236Z,25.10
2022-09-03T16:46:48.427Z,25.10
2022-09-03T16:49:36.035Z,25.00
2022-09-03T16:52:15.918Z,24.90
2022-09-03T16:54:59.479Z,24.80
2022-09-03T16:57:39.566Z,24.70
2022-09-03T17:00:15.551Z,24.60
2022-09-03T17:03:03.900Z,24.50
2022-09-03T17:05:57.539Z,24.40
2022-09-03T17:08:35.205Z,24.30
2022-09-03T17:11:16.565Z,24.20
2022-09-03T17:14:24.851Z,24.00
2022-09-03T17:17:03.416Z,23.90
2022-09-03T17:19:36.886Z,23.80
2022-09-03T17:22:13.877Z,23.60
2022-09-03T17:24:55.139Z,23.50
2022-09-03T17:27:51.440Z,23.40
2022-09-03T17:30:28.028Z,23.30
2022-09-03T17:33:35.187Z,23.10
2022-09-03T17:36:13.135Z,22.90
2022-09-03T17:39:06.769Z,22.80
2022-09-03T17:41:44.049Z,22.60
2022-09-03T17:44:20.960Z,22.40
2022-09-03T17:47:04.506Z,22.30
2022-09-03T17:49:54.947Z,22.10
2022-09-03T17:52:32.200Z,22.00
2022-09-03T17:55:09.608Z,21.90
2022-09-03T17:57:44.694Z,21.70
2022-09-03T18:00:24.185Z,21.60
2022-09-03T18:02:57.648Z,21.50
2022-09-03T18:05:30.195Z,21.40
2022-09-03T18:08:06.305Z,21.30
2022-09-03T18:10:46.201Z,21.20
2022-09-03T18:13:26.131Z,21.10
2022-09-03T18:16:03.870Z,21.00
2022-09-03T18:18:34.255Z,20.90
2022-09-03T18:21:30.828Z,20.90
2022-09-03T18:24:23.805Z,20.80
2022-09-03T18:27:15.968Z,20.70
2022-09-03T18:30:05.551Z,20.70
2022-09-03T18:32:51.756Z,20.60
2022-09-03T18:35:38.227Z,20.50
2022-09-03T18:38:24.333Z,20.40
2022-09-03T18:41:17.757Z,20.40
2022-09-03T18:44:12.628Z,20.30
2022-09-03T18:48:02.197Z,20.30
2022-09-03T18:50:22.761Z,20.30
2022-09-03T18:53:14.786Z,20.20
2022-09-03T18:56:14.934Z,20.10
2022-09-03T18:59:16.387Z,20.10
2022-09-03T19:02:03.367Z,20.00
2022-09-03T19:05:01.995Z,20.00
2022-09-03T19:08:00.261Z,19.90
2022-09-03T19:10:52.994Z,19.90
2022-09-03T19:13:50.689Z,19.80
2022-09-03T19:16:45.599Z,19.80
2022-09-03T19:20:03.144Z,19.70
2022-09-03T19:22:53.814Z,19.60
2022-09-03T19:25:40.665Z,19.60
2022-09-03T19:28:35.705Z,19.50
2022-09-03T19:31:42.059Z,19.40
2022-09-03T19:34:40.948Z,19.40
2022-09-03T19:37:32.959Z,19.30
2022-09-03T19:40:40.155Z,19.30
2022-09-03T19:43:43.915Z,19.20
2022-09-03T19:46:37.933Z,19.10
2022-09-03T19:49:35.295Z,19.00
2022-09-03T19:52:26.610Z,19.00
2022-09-03T19:55:16.209Z,18.90
2022-09-03T19:58:16.672Z,18.80
2022-09-03T20:01:12.823Z,18.70
2022-09-03T20:03:59.729Z,18.60
2022-09-03T20:06:47.619Z,18.50
2022-09-03T20:09:39.877Z,18.50
2022-09-03T20:12:10.246Z,18.40
2022-09-03T20:14:39.098Z,18.30
2022-09-03T20:17:16.667Z,18.30
2022-09-03T20:20:04.563Z,18.20
2022-09-03T20:22:42.694Z,18.20
2022-09-03T20:25:44.321Z,18.20
2022-09-03T20:28:26.825Z,18.10
2022-09-03T20:31:02.763Z,18.10
2022-09-03T20:33:42.160Z,18.00
2022-09-03T20:36:21.395Z,18.00
2022-09-03T20:39:12.141Z,18.00
2022-09-03T20:41:57.275Z,18.00
2022-09-03T20:44:39.605Z,18.00
2022-09-03T20:47:21.402Z,18.00
2022-09-03T20:49:57.599Z,17.90
2022-09-03T20:52:38.815Z,17.90
2022-09-03T20:55:19.005Z,17.90
2022-09-03T20:57:54.897Z,17.90
2022-09-03T21:00:24.017Z,17.90
2022-09-03T21:03:17.077Z,17.90
2022-09-03T21:05:56.058Z,17.90
2022-09-03T21:08:46.829Z,17.90
2022-09-03T21:14:14.694Z,17.90
2022-09-03T21:16:50.352Z,17.90
2022-09-03T21:19:23.325Z,17.80
2022-09-03T21:21:59.593Z,17.80
2022-09-03T21:24:32.294Z,17.80
2022-09-03T21:27:07.348Z,17.80
2022-09-03T21:29:41.454Z,17.80
2022-09-03T21:32:15.633Z,17.70
2022-09-03T21:34:51.746Z,17.70
2022-09-03T21:37:21.655Z,17.60
2022-09-03T21:39:55.760Z,17.60
2022-09-03T21:42:36.538Z,17.60
2022-09-03T21:45:11.203Z,17.50
2022-09-03T21:47:44.614Z,17.50
2022-09-03T21:50:18.475Z,17.50
2022-09-03T21:52:54.093Z,17.40
2022-09-03T21:55:31.196Z,17.40
2022-09-03T21:58:18.562Z,17.30
2022-09-03T22:00:48.836Z,17.30
2022-09-03T22:03:17.192Z,17.20
2022-09-03T22:05:51.576Z,17.20
2022-09-03T22:08:27.432Z,17.10
2022-09-03T22:11:03.183Z,17.10
2022-09-03T22:13:40.147Z,17.10
2022-09-03T22:16:24.625Z,17.00
2022-09-03T22:18:54.997Z,17.00
2022-09-03T22:21:29.436Z,17.00
2022-09-03T22:24:14.711Z,16.90
2022-09-03T22:26:52.013Z,16.90
2022-09-03T22:29:33.793Z,16.80
2022-09-03T22:32:10.272Z,16.80
2022-09-03T22:35:02.772Z,16.80
2022-09-03T22:37:50.164Z,16.80
2022-09-03T22:40:24.119Z,16.70
2022-09-03T22:43:04.925Z,16.70
2022-09-03T22:45:54.446Z,16.70
2022-09-03T22:48:37.055Z,16.70
2022-09-03T22:51:05.517Z,16.70
2022-09-03T22:53:47.947Z,16.70
2022-09-03T22:56:21.973Z,16.70
2022-09-03T22:58:57.346Z,16.70
2022-09-03T23:01:30.761Z,16.70
2022-09-03T23:04:04.265Z,16.70
2022-09-03T23:06:38.453Z,16.70
2022-09-03T23:09:09.982Z,16.70
2022-09-03T23:11:43.819Z,16.80
2022-09-03T23:14:14.634Z,16.80
2022-09-03T23:16:51.216Z,16.80
2022-09-03T23:19:33.426Z,16.80
2022-09-03T23:22:04.787Z,16.80
2022-09-03T23:24:37.983Z,16.80
2022-09-03T23:27:10.057Z,16.80
2022-09-03T23:29:42.062Z,16.70
2022-09-03T23:32:11.731Z,16.70
2022-09-03T23:34:40.650Z,16.70
2022-09-03T23:37:35.528Z,16.70
2022-09-03T23:40:28.005Z,16.70
2022-09-03T23:43:43.906Z,16.70
2022-09-03T23:46:19.535Z,16.70
2022-09-03T23:49:10.555Z,16.70
2022-09-03T23:51:48.599Z,16.70
2022-09-03T23:54:24.348Z,16.60
2022-09-03T23:57:32.792Z,16.60
